createdAt,value
2022-12-23T00:02:05.169Z,3.85
2022-12-23T00:04:34.828Z,3.72
2022-12-23T00:07:04.352Z,3.08
2022-12-23T00:09:34.163Z,3.28
2022-12-23T00:12:21.010Z,4.15
2022-12-23T00:15:11.477Z,8.40
2022-12-23T00:17:45.424Z,7.15
2022-12-23T00:20:17.325Z,4.85
2022-12-23T00:23:04.132Z,4.68
2022-12-23T00:25:44.974Z,6.50
2022-12-23T00:28:16.711Z,4.80
2022-12-23T00:30:53.988Z,6.95
2022-12-23T00:33:26.562Z,5.25
2022-12-23T00:35:56.463Z,6.15
2022-12-23T00:38:40.418Z,4.70
2022-12-23T00:41:31.193Z,4.57
2022-12-23T00:44:01.050Z,5.82
2022-12-23T00:46:32.073Z,5.75
2022-12-23T00:50:54.260Z,6.70
2022-12-23T00:53:24.573Z,6.13
2022-12-23T00:55:54.055Z,6.50
2022-12-23T00:58:24.105Z,7.68
2022-12-23T01:01:13.204Z,5.78
2022-12-23T01:04:00.080Z,5.90
2022-12-23T01:06:30.869Z,7.38
2022-12-23T01:09:00.280Z,4.20
2022-12-23T01:11:29.634Z,10.35
2022-12-23T01:14:00.201Z,7.35
2022-12-23T01:16:29.621Z,6.57
2022-12-23T01:18:59.118Z,5.93
2022-12-23T01:21:29.976Z,5.55
2022-12-23T01:23:59.332Z,5.38
2022-12-23T01:26:29.117Z,6.97
2022-12-23T01:29:00.039Z,3.47
2022-12-23T01:31:30.634Z,5.63
2022-12-23T01:33:59.982Z,5.25
2022-12-23T01:36:30.894Z,4.60
2022-12-23T01:39:00.286Z,4.50
2022-12-23T01:41:50.402Z,4.97
2022-12-23T01:45:00.761Z,4.45
2022-12-23T01:47:37.326Z,3.97
2022-12-23T01:50:15.898Z,4.55
2022-12-23T01:52:51.043Z,5.28
2022-12-23T01:55:24.961Z,4.55
2022-12-23T01:57:58.070Z,7.47
2022-12-23T02:00:44.858Z,6.07
2022-12-23T02:03:31.934Z,6.60
2022-12-23T02:06:22.309Z,7.72
2022-12-23T02:09:10.368Z,5.53
2022-12-23T02:12:25.149Z,5.32
2022-12-23T02:15:34.914Z,6.75
2022-12-23T02:18:35.863Z,6.22
2022-12-23T02:21:38.325Z,6.18
2022-12-23T02:24:49.395Z,4.15
2022-12-23T02:27:27.635Z,7.88
2022-12-23T02:30:45.723Z,7.50
2022-12-23T02:33:38.865Z,6.07
2022-12-23T02:36:36.306Z,7.57
2022-12-23T02:39:13.341Z,5.72
2022-12-23T02:41:55.352Z,7.53
2022-12-23T02:44:33.797Z,5.00
2022-12-23T02:47:12.313Z,5.97
2022-12-23T02:49:47.777Z,6.80
2022-12-23T02:52:20.238Z,4.68
2022-12-23T02:54:53.994Z,4.43
2022-12-23T02:57:28.999Z,5.70
2022-12-23T03:00:00.337Z,4.90
2022-12-23T03:02:32.985Z,4.78
2022-12-23T03:07:36.677Z,3.92
2022-12-23T03:10:15.592Z,5.18
2022-12-23T03:12:57.437Z,4.13
2022-12-23T03:15:39.008Z,6.28
2022-12-23T03:18:21.408Z,4.75
2022-12-23T03:20:58.759Z,4.30
2022-12-23T03:23:33.545Z,3.92
2022-12-23T03:26:13.511Z,4.20
2022-12-23T03:28:49.008Z,4.28
2022-12-23T03:31:25.613Z,4.85
2022-12-23T03:34:03.547Z,5.13
2022-12-23T03:36:38.770Z,4.32
2022-12-23T03:39:14.151Z,5.10
2022-12-23T03:41:48.718Z,3.95
2022-12-23T03:44:22.937Z,7.07
2022-12-23T03:47:00.683Z,3.53
2022-12-23T03:51:57.091Z,4.18
2022-12-23T03:54:31.959Z,3.83
2022-12-23T03:57:07.475Z,3.75
2022-12-23T03:59:41.158Z,4.18
2022-12-23T04:02:17.825Z,5.10
2022-12-23T04:05:10.500Z,4.28
2022-12-23T04:07:45.013Z,4.27
2022-12-23T04:10:15.936Z,5.13
2022-12-23T04:12:46.647Z,6.25
2022-12-23T04:15:20.045Z,10.48
2022-12-23T04:17:50.295Z,10.18
2022-12-23T04:20:20.232Z,6.22
2022-12-23T04:22:51.490Z,6.43
2022-12-23T04:25:21.425Z,6.10
2022-12-23T04:27:50.634Z,5.57
2022-12-23T04:30:20.080Z,8.80
2022-12-23T04:32:49.405Z,9.05
2022-12-23T04:35:18.839Z,9.18
2022-12-23T04:37:49.664Z,8.13
2022-12-23T04:40:19.551Z,12.38
2022-12-23T04:42:48.892Z,11.13
2022-12-23T04:45:18.446Z,6.45
2022-12-23T04:47:47.750Z,6.95
2022-12-23T04:50:18.486Z,7.60
2022-12-23T04:52:49.315Z,4.85
2022-12-23T04:55:19.172Z,5.70
2022-12-23T04:57:48.625Z,6.85
2022-12-23T05:00:19.666Z,5.18
2022-12-23T05:02:49.272Z,8.07
2022-12-23T05:05:19.856Z,7.35
2022-12-23T05:07:52.441Z,9.20
2022-12-23T05:10:21.976Z,6.05
2022-12-23T05:12:51.492Z,6.90
2022-12-23T05:15:21.001Z,6.00
2022-12-23T05:17:50.398Z,6.28
2022-12-23T05:20:20.523Z,7.57
2022-12-23T05:22:51.319Z,7.70
2022-12-23T05:25:20.790Z,11.48
2022-12-23T05:27:50.289Z,25.33
2022-12-23T05:30:20.036Z,7.82
2022-12-23T05:32:49.489Z,10.05
2022-12-23T05:35:18.987Z,11.52
2022-12-23T05:37:50.060Z,8.80
2022-12-23T05:40:23.774Z,10.05
2022-12-23T05:42:56.142Z,7.07
2022-12-23T05:45:25.708Z,11.18
2022-12-23T05:47:55.287Z,11.80
2022-12-23T05:50:24.820Z,10.85
2022-12-23T05:52:57.886Z,14.40
2022-12-23T05:55:28.299Z,11.45
2022-12-23T05:57:57.837Z,9.32
2022-12-23T06:00:27.529Z,13.00
2022-12-23T06:02:57.214Z,6.47
2022-12-23T06:05:26.665Z,7.03
2022-12-23T06:07:57.418Z,7.15
2022-12-23T06:10:26.876Z,11.93
2022-12-23T06:12:56.142Z,10.75
2022-12-23T06:15:25.672Z,17.25
2022-12-23T06:17:54.975Z,15.20
2022-12-23T06:20:24.446Z,11.40
2022-12-23T06:22:53.729Z,13.80
2022-12-23T06:25:24.631Z,9.70
2022-12-23T06:27:53.864Z,13.65
2022-12-23T06:30:23.698Z,10.48
2022-12-23T06:32:53.154Z,12.70
2022-12-23T06:35:22.564Z,13.65
2022-12-23T06:37:54.823Z,10.25
2022-12-23T06:40:25.585Z,11.20
2022-12-23T06:42:54.931Z,13.55
2022-12-23T06:45:24.477Z,10.70
2022-12-23T06:47:53.824Z,9.32
2022-12-23T06:51:51.769Z,13.18
2022-12-23T06:54:21.247Z,24.98
2022-12-23T06:56:50.575Z,23.05
2022-12-23T06:59:19.905Z,16.20
2022-12-23T07:01:49.563Z,12.38
2022-12-23T07:04:19.401Z,14.55
2022-12-23T07:06:50.350Z,18.17
2022-12-23T07:09:20.134Z,14.15
2022-12-23T07:11:49.614Z,14.75
2022-12-23T07:14:19.042Z,19.20
2022-12-23T07:16:48.515Z,19.10
2022-12-23T07:19:18.255Z,20.85
2022-12-23T07:21:47.713Z,19.42
2022-12-23T07:24:18.743Z,17.23
2022-12-23T07:26:48.156Z,15.27
2022-12-23T07:29:17.448Z,16.10
2022-12-23T07:31:46.909Z,17.90
2022-12-23T07:34:16.443Z,27.48
2022-12-23T07:36:45.830Z,18.63
2022-12-23T07:39:16.883Z,26.98
2022-12-23T07:41:46.371Z,27.45
2022-12-23T07:44:16.098Z,33.50
2022-12-23T07:46:45.620Z,46.60
2022-12-23T07:49:15.394Z,36.83
2022-12-23T07:51:44.829Z,33.78
2022-12-23T07:54:16.511Z,24.65
2022-12-23T07:56:45.978Z,18.67
2022-12-23T07:59:15.718Z,15.15
2022-12-23T08:01:45.381Z,14.13
2022-12-23T08:04:14.760Z,13.07
2022-12-23T08:06:44.173Z,15.98
2022-12-23T08:09:20.994Z,18.77
2022-12-23T08:11:50.415Z,14.70
2022-12-23T08:14:19.675Z,13.25
2022-12-23T08:16:50.425Z,14.75
2022-12-23T08:19:19.832Z,19.83
2022-12-23T08:21:49.116Z,17.75
2022-12-23T08:24:19.784Z,13.15
2022-12-23T08:26:49.099Z,9.68
2022-12-23T08:29:18.456Z,6.20
2022-12-23T08:31:47.864Z,6.65
2022-12-23T08:34:17.390Z,8.05
2022-12-23T08:36:46.634Z,5.15
2022-12-23T08:39:16.073Z,6.03
2022-12-23T08:41:49.813Z,6.85
2022-12-23T08:44:19.511Z,7.15
2022-12-23T08:46:48.997Z,5.20
2022-12-23T08:49:18.440Z,5.45
2022-12-23T08:51:47.970Z,5.95
2022-12-23T08:54:17.627Z,10.30
2022-12-23T08:56:48.539Z,11.27
2022-12-23T08:59:20.112Z,9.32
2022-12-23T09:01:50.349Z,8.88
2022-12-23T09:04:20.038Z,8.43
2022-12-23T09:06:49.472Z,9.68
2022-12-23T09:09:18.934Z,8.68
2022-12-23T09:11:49.615Z,4.97
2022-12-23T09:14:19.111Z,6.07
2022-12-23T09:16:50.550Z,9.15
2022-12-23T09:19:20.607Z,12.13
2022-12-23T09:21:50.047Z,10.02
2022-12-23T09:24:19.351Z,6.50
2022-12-23T09:26:50.081Z,5.82
2022-12-23T09:29:19.615Z,5.10
2022-12-23T09:34:32.304Z,4.72
2022-12-23T09:37:01.587Z,6.30
2022-12-23T09:39:31.276Z,4.80
2022-12-23T09:42:09.274Z,5.15
2022-12-23T09:52:00.506Z,4.43
2022-12-23T09:54:35.192Z,5.85
2022-12-23T09:57:10.049Z,7.00
2022-12-23T10:00:06.023Z,10.20
2022-12-23T10:02:52.414Z,4.07
2022-12-23T10:05:37.263Z,8.32
2022-12-23T10:08:18.029Z,5.50
2022-12-23T10:10:52.804Z,6.90
2022-12-23T10:13:36.687Z,5.75
2022-12-23T10:16:10.520Z,6.97
2022-12-23T10:18:50.112Z,4.82
2022-12-23T10:21:28.449Z,4.18
2022-12-23T10:24:05.203Z,2.90
2022-12-23T10:26:44.679Z,3.08
2022-12-23T10:29:19.911Z,2.67
2022-12-23T10:32:06.160Z,4.88
2022-12-23T10:34:49.250Z,3.95
2022-12-23T10:40:17.701Z,10.25
2022-12-23T10:42:58.557Z,18.38
2022-12-23T10:45:44.658Z,10.95
2022-12-23T10:48:40.642Z,5.55
2022-12-23T10:51:20.051Z,8.63
2022-12-23T10:53:55.296Z,8.60
2022-12-23T10:56:26.652Z,9.80
2022-12-23T10:59:01.560Z,7.53
2022-12-23T11:01:33.876Z,10.77
2022-12-23T11:04:11.023Z,11.43
2022-12-23T11:06:45.817Z,9.20
2022-12-23T11:09:21.422Z,10.95
2022-12-23T11:12:02.906Z,10.18
2022-12-23T11:14:40.300Z,7.88
2022-12-23T11:17:24.258Z,7.20
2022-12-23T11:22:52.127Z,9.15
2022-12-23T11:25:35.737Z,8.70
2022-12-23T11:28:13.981Z,7.50
2022-12-23T11:30:57.217Z,10.52
2022-12-23T11:33:31.169Z,11.05
2022-12-23T11:36:15.255Z,13.05
2022-12-23T11:38:52.882Z,11.55
2022-12-23T11:41:25.708Z,11.70
2022-12-23T11:46:32.429Z,10.43
2022-12-23T11:49:20.902Z,13.32
2022-12-23T11:52:02.450Z,11.02
2022-12-23T11:54:33.181Z,8.73
2022-12-23T11:57:08.010Z,9.30
2022-12-23T11:59:42.427Z,8.45
2022-12-23T12:02:20.467Z,8.90
2022-12-23T12:04:59.507Z,13.23
2022-12-23T12:07:30.216Z,10.68
2022-12-23T12:10:02.894Z,14.98
2022-12-23T12:12:33.385Z,10.30
2022-12-23T12:15:05.055Z,12.00
2022-12-23T12:17:40.351Z,9.82
2022-12-23T12:20:19.826Z,9.07
2022-12-23T12:22:56.414Z,9.90
2022-12-23T12:25:39.841Z,10.38
2022-12-23T12:28:16.656Z,10.73
2022-12-23T12:30:54.666Z,14.15
2022-12-23T12:33:32.205Z,11.40
2022-12-23T12:36:14.824Z,14.68
2022-12-23T12:38:49.322Z,12.23
2022-12-23T12:41:24.769Z,13.05
2022-12-23T12:44:02.498Z,17.02
2022-12-23T12:46:40.116Z,11.75
2022-12-23T12:52:00.227Z,6.50
2022-12-23T12:54:37.694Z,6.82
2022-12-23T12:57:07.663Z,6.68
2022-12-23T12:59:39.900Z,7.70
2022-12-23T13:02:46.353Z,10.02
2022-12-23T13:05:34.800Z,10.18
2022-12-23T13:08:24.018Z,10.68
2022-12-23T13:10:59.075Z,10.07
2022-12-23T13:13:46.686Z,10.98
2022-12-23T13:16:31.185Z,11.70
2022-12-23T13:19:08.147Z,14.15
2022-12-23T13:21:46.700Z,17.88
2022-12-23T13:24:26.748Z,17.58
2022-12-23T13:27:09.803Z,11.50
2022-12-23T13:32:57.138Z,15.25
2022-12-23T13:35:43.735Z,14.52
2022-12-23T13:38:36.521Z,16.95
2022-12-23T13:41:18.453Z,9.07
2022-12-23T13:43:54.565Z,11.18
2022-12-23T13:46:39.262Z,11.93
2022-12-23T13:49:21.184Z,13.05
2022-12-23T13:51:59.426Z,12.68
2022-12-23T13:54:44.868Z,13.70
2022-12-23T13:57:29.562Z,11.55
2022-12-23T14:00:08.569Z,18.70
2022-12-23T14:02:50.421Z,20.45
2022-12-23T14:05:37.359Z,16.35
2022-12-23T14:08:21.330Z,14.80
2022-12-23T14:10:56.434Z,7.18
2022-12-23T14:13:32.157Z,6.45
2022-12-23T14:16:33.680Z,4.60
2022-12-23T14:19:42.732Z,5.28
2022-12-23T14:22:38.770Z,5.35
2022-12-23T14:25:50.629Z,5.75
2022-12-23T14:28:49.261Z,5.05
2022-12-23T14:31:36.797Z,4.82
2022-12-23T14:34:28.541Z,8.15
2022-12-23T14:37:35.624Z,7.38
2022-12-23T14:41:00.691Z,11.25
2022-12-23T14:43:59.698Z,8.80
2022-12-23T14:46:59.943Z,11.38
2022-12-23T14:49:47.547Z,13.30
2022-12-23T14:53:01.786Z,11.88
2022-12-23T14:55:46.642Z,13.25
2022-12-23T14:59:02.798Z,15.18
2022-12-23T15:01:39.040Z,22.65
2022-12-23T15:04:18.605Z,20.80
2022-12-23T15:06:51.374Z,17.17
2022-12-23T15:11:59.550Z,17.65
2022-12-23T15:14:37.941Z,27.63
2022-12-23T15:17:27.586Z,34.35
2022-12-23T15:20:12.745Z,40.75
2022-12-23T15:22:45.344Z,32.88
2022-12-23T15:25:25.503Z,29.33
2022-12-23T15:28:01.615Z,45.92
2022-12-23T15:30:38.567Z,23.63
2022-12-23T15:33:43.284Z,87.55
2022-12-23T15:36:05.721Z,136.37
2022-12-23T15:38:39.738Z,70.45
2022-12-23T15:41:18.932Z,50.78
2022-12-23T15:43:48.847Z,181.55
2022-12-23T15:46:29.266Z,194.13
2022-12-23T15:52:08.082Z,93.75
2022-12-23T15:54:47.422Z,41.90
2022-12-23T15:57:22.650Z,29.83
2022-12-23T15:59:53.122Z,25.92
2022-12-23T16:05:30.941Z,9.18
2022-12-23T16:08:29.764Z,28.65
2022-12-23T16:11:08.514Z,19.48
2022-12-23T16:13:44.759Z,47.28
2022-12-23T16:16:35.844Z,52.42
2022-12-23T16:19:07.029Z,16.65
2022-12-23T16:21:39.222Z,28.33
2022-12-23T16:24:14.283Z,25.48
2022-12-23T16:26:45.634Z,18.65
2022-12-23T16:29:17.282Z,17.30
2022-12-23T16:31:54.298Z,15.40
2022-12-23T16:34:27.756Z,15.15
2022-12-23T16:36:57.704Z,16.35
2022-12-23T16:39:29.303Z,10.75
2022-12-23T16:41:58.991Z,9.68
2022-12-23T16:44:28.790Z,9.82
2022-12-23T16:46:58.548Z,6.78
2022-12-23T16:49:33.356Z,11.70
2022-12-23T16:52:05.508Z,23.77
2022-12-23T16:54:36.933Z,10.93
2022-12-23T16:57:07.058Z,12.88
2022-12-23T16:59:37.462Z,15.05
2022-12-23T17:02:11.485Z,17.52
2022-12-23T17:04:41.469Z,9.98
2022-12-23T17:07:15.244Z,24.02
2022-12-23T17:09:46.621Z,19.10
2022-12-23T17:12:16.643Z,24.02
2022-12-23T17:14:46.688Z,15.05
2022-12-23T17:17:18.528Z,18.15
2022-12-23T17:19:48.452Z,10.82
2022-12-23T17:22:18.931Z,15.68
2022-12-23T17:24:50.609Z,10.18
2022-12-23T17:27:22.240Z,18.88
2022-12-23T17:29:52.133Z,16.00
2022-12-23T17:32:22.268Z,16.45
2022-12-23T17:34:52.325Z,9.40
2022-12-23T17:37:23.538Z,17.63
2022-12-23T17:39:55.363Z,14.40
2022-12-23T17:42:26.375Z,15.43
2022-12-23T17:44:56.462Z,18.23
2022-12-23T17:47:26.449Z,17.02
2022-12-23T17:49:56.263Z,18.83
2022-12-23T17:52:27.204Z,30.23
2022-12-23T17:54:58.607Z,30.52
2022-12-23T17:57:29.901Z,19.38
2022-12-23T17:59:59.792Z,18.92
2022-12-23T18:02:33.242Z,18.85
2022-12-23T18:05:04.069Z,17.92
2022-12-23T18:07:34.162Z,21.10
2022-12-23T18:10:05.702Z,16.30
2022-12-23T18:12:41.374Z,19.92
2022-12-23T18:15:23.021Z,14.68
2022-12-23T18:17:54.882Z,26.35
2022-12-23T18:20:26.464Z,14.70
2022-12-23T18:22:58.639Z,13.20
2022-12-23T18:25:30.361Z,19.70
2022-12-23T18:28:00.332Z,20.95
2022-12-23T18:30:30.336Z,18.58
2022-12-23T18:33:00.273Z,14.40
2022-12-23T18:35:33.320Z,23.45
2022-12-23T18:38:04.315Z,22.42
2022-12-23T18:40:35.703Z,29.80
2022-12-23T18:43:05.872Z,18.33
2022-12-23T18:45:38.192Z,18.23
2022-12-23T18:48:11.153Z,16.48
2022-12-23T18:51:51.931Z,16.40
2022-12-23T18:54:22.272Z,17.10
2022-12-23T18:56:52.162Z,22.17
2022-12-23T18:59:29.806Z,20.83
2022-12-23T19:02:01.206Z,22.27
2022-12-23T19:04:31.271Z,12.82
2022-12-23T19:07:02.882Z,18.33
2022-12-23T19:09:32.723Z,21.88
2022-12-23T19:12:02.602Z,15.02
2022-12-23T19:14:32.570Z,12.85
2022-12-23T19:17:02.535Z,16.67
2022-12-23T19:19:32.362Z,13.90
2022-12-23T19:22:03.829Z,17.60
2022-12-23T19:24:33.704Z,13.75
2022-12-23T19:27:03.608Z,13.02
2022-12-23T19:29:33.321Z,12.73
2022-12-23T19:32:03.269Z,16.10
2022-12-23T19:34:33.271Z,17.00
2022-12-23T19:37:04.575Z,15.45
2022-12-23T19:39:34.796Z,17.35
2022-12-23T19:42:04.710Z,15.90
2022-12-23T19:44:34.784Z,16.60
2022-12-23T19:47:06.041Z,19.15
2022-12-23T19:49:35.922Z,16.92
2022-12-23T19:52:07.668Z,16.15
2022-12-23T19:54:37.606Z,17.02
2022-12-23T19:57:07.573Z,14.27
2022-12-23T19:59:37.688Z,12.80
2022-12-23T20:02:07.779Z,13.52
2022-12-23T20:04:37.862Z,13.23
2022-12-23T20:07:09.399Z,10.85
2022-12-23T20:09:42.503Z,13.75
2022-12-23T20:12:12.658Z,11.07
2022-12-23T20:14:43.374Z,10.90
2022-12-23T20:17:13.369Z,12.10
2022-12-23T20:19:46.094Z,8.95
2022-12-23T20:22:17.760Z,10.07
2022-12-23T20:24:47.620Z,10.43
2022-12-23T20:27:20.127Z,8.43
2022-12-23T20:29:52.663Z,8.13
2022-12-23T20:32:23.622Z,8.20
2022-12-23T20:34:53.660Z,7.35
2022-12-23T20:37:24.981Z,8.63
2022-12-23T20:39:55.284Z,12.18
2022-12-23T20:42:27.073Z,8.68
2022-12-23T20:44:56.821Z,8.32
2022-12-23T20:47:26.700Z,7.93
2022-12-23T20:49:56.521Z,8.02
2022-12-23T20:52:27.967Z,7.93
2022-12-23T20:54:58.061Z,6.60
2022-12-23T20:57:27.901Z,7.15
2022-12-23T20:59:57.804Z,7.57
2022-12-23T21:02:28.557Z,8.70
2022-12-23T21:04:58.320Z,8.40
2022-12-23T21:07:29.781Z,7.10
2022-12-23T21:09:59.682Z,8.27
2022-12-23T21:12:29.441Z,8.77
2022-12-23T21:14:59.329Z,6.85
2022-12-23T21:17:29.942Z,7.45
2022-12-23T21:20:06.912Z,9.48
2022-12-23T21:22:39.047Z,7.43
2022-12-23T21:25:10.342Z,7.45
2022-12-23T21:27:40.192Z,7.82
2022-12-23T21:30:13.637Z,7.18
2022-12-23T21:32:43.541Z,9.18
2022-12-23T21:35:14.001Z,11.65
2022-12-23T21:37:45.397Z,10.30
2022-12-23T21:40:16.561Z,18.15
2022-12-23T21:42:46.480Z,9.57
2022-12-23T21:45:16.400Z,7.30
2022-12-23T21:47:46.322Z,6.10
2022-12-23T21:51:51.813Z,7.57
2022-12-23T21:54:21.820Z,5.55
2022-12-23T21:56:51.706Z,6.07
2022-12-23T21:59:21.788Z,4.88
2022-12-23T22:01:51.836Z,5.45
2022-12-23T22:04:21.879Z,4.60
2022-12-23T22:06:53.409Z,6.75
2022-12-23T22:09:23.342Z,5.00
2022-12-23T22:11:53.188Z,4.47
2022-12-23T22:14:23.099Z,5.15
2022-12-23T22:16:52.982Z,7.47
2022-12-23T22:19:22.901Z,6.22
2022-12-23T22:21:54.342Z,6.43
2022-12-23T22:24:24.245Z,4.00
2022-12-23T22:26:54.107Z,4.60
2022-12-23T22:29:23.962Z,5.60
2022-12-23T22:31:54.513Z,4.50
2022-12-23T22:34:26.040Z,4.75
2022-12-23T22:36:57.453Z,4.30
2022-12-23T22:39:27.481Z,4.55
2022-12-23T22:41:57.320Z,4.57
2022-12-23T22:44:27.301Z,4.78
2022-12-23T22:46:57.339Z,4.95
2022-12-23T22:49:27.664Z,4.70
2022-12-23T22:51:59.166Z,4.78
2022-12-23T22:54:29.144Z,4.93
2022-12-23T22:56:58.959Z,5.10
2022-12-23T22:59:28.932Z,6.10
2022-12-23T23:01:58.801Z,4.35
2022-12-23T23:04:29.079Z,5.45
2022-12-23T23:07:00.581Z,6.47
2022-12-23T23:09:30.448Z,4.82
2022-12-23T23:12:00.405Z,5.95
2022-12-23T23:14:50.519Z,6.93
2022-12-23T23:17:20.701Z,4.28
2022-12-23T23:19:50.681Z,4.40
2022-12-23T23:22:23.958Z,6.53
2022-12-23T23:24:54.240Z,4.18
2022-12-23T23:27:24.282Z,4.22
2022-12-23T23:29:54.183Z,7.10
2022-12-23T23:32:26.922Z,5.32
2022-12-23T23:34:56.741Z,5.65
2022-12-23T23:37:28.159Z,4.70
2022-12-23T23:39:58.059Z,4.68
2022-12-23T23:42:27.845Z,6.13
2022-12-23T23:44:57.740Z,3.40
2022-12-23T23:47:27.858Z,5.88
2022-12-23T23:49:57.719Z,5.53
2022-12-23T23:52:29.269Z,6.40
2022-12-23T23:54:59.118Z,5.75
2022-12-23T23:57:29.127Z,5.13
2022-12-23T23:59:59.039Z,6.32
